sensor_id;sensor_type;location;lat;lon;timestamp;temperature;humidity
43561;DHT22;32305;46.410;17.394;2023-08-12T00:02:06;24.50;48.70
43561;DHT22;32305;46.410;17.394;2023-08-12T00:04:33;24.50;48.70
43561;DHT22;32305;46.410;17.394;2023-08-12T00:07:00;24.50;48.70
43561;DHT22;32305;46.410;17.394;2023-08-12T00:09:27;24.50;48.70
43561;DHT22;32305;46.410;17.394;2023-08-12T00:11:54;24.50;48.70
43561;DHT22;32305;46.410;17.394;2023-08-12T00:14:21;24.50;49.00
43561;DHT22;32305;46.410;17.394;2023-08-12T00:16:49;24.50;48.70
43561;DHT22;32305;46.410;17.394;2023-08-12T00:19:16;24.50;48.70
43561;DHT22;32305;46.410;17.394;2023-08-12T00:21:43;24.40;48.70
43561;DHT22;32305;46.410;17.394;2023-08-12T00:24:10;24.40;48.70
43561;DHT22;32305;46.410;17.394;2023-08-12T00:26:36;24.50;48.80
43561;DHT22;32305;46.410;17.394;2023-08-12T00:29:04;24.50;48.80
43561;DHT22;32305;46.410;17.394;2023-08-12T00:31:31;24.50;48.80
43561;DHT22;32305;46.410;17.394;2023-08-12T00:33:58;24.50;48.80
43561;DHT22;32305;46.410;17.394;2023-08-12T00:36:25;24.50;48.80
43561;DHT22;32305;46.410;17.394;2023-08-12T00:38:52;24.50;48.80
43561;DHT22;32305;46.410;17.394;2023-08-12T00:41:19;24.50;48.80
43561;DHT22;32305;46.410;17.394;2023-08-12T00:43:46;24.50;48.80
43561;DHT22;32305;46.410;17.394;2023-08-12T00:46:13;24.50;48.80
43561;DHT22;32305;46.410;17.394;2023-08-12T00:48:40;24.50;48.80
43561;DHT22;32305;46.410;17.394;2023-08-12T00:51:07;24.50;48.80
43561;DHT22;32305;46.410;17.394;2023-08-12T00:53:34;24.50;48.80
43561;DHT22;32305;46.410;17.394;2023-08-12T00:56:02;24.50;48.80
43561;DHT22;32305;46.410;17.394;2023-08-12T00:58:29;24.50;48.80
43561;DHT22;32305;46.410;17.394;2023-08-12T01:00:57;24.50;48.80
43561;DHT22;32305;46.410;17.394;2023-08-12T01:03:24;24.50;48.80
43561;DHT22;32305;46.410;17.394;2023-08-12T01:05:52;24.50;49.40
43561;DHT22;32305;46.410;17.394;2023-08-12T01:08:19;24.50;48.90
43561;DHT22;32305;46.410;17.394;2023-08-12T01:10:49;24.40;48.90
43561;DHT22;32305;46.410;17.394;2023-08-12T01:13:23;24.40;48.90
43561;DHT22;32305;46.410;17.394;2023-08-12T01:15:53;24.40;48.90
43561;DHT22;32305;46.410;17.394;2023-08-12T01:18:21;24.40;48.90
43561;DHT22;32305;46.410;17.394;2023-08-12T01:20:49;24.40;49.00
43561;DHT22;32305;46.410;17.394;2023-08-12T01:23:16;24.40;49.00
43561;DHT22;32305;46.410;17.394;2023-08-12T01:25:43;24.40;49.00
43561;DHT22;32305;46.410;17.394;2023-08-12T01:28:10;24.40;49.00
43561;DHT22;32305;46.410;17.394;2023-08-12T01:30:39;24.40;49.00
43561;DHT22;32305;46.410;17.394;2023-08-12T01:33:27;24.40;49.00
43561;DHT22;32305;46.410;17.394;2023-08-12T01:35:59;24.40;49.00
43561;DHT22;32305;46.410;17.394;2023-08-12T01:38:31;24.40;49.00
43561;DHT22;32305;46.410;17.394;2023-08-12T01:40:58;24.40;49.00
43561;DHT22;32305;46.410;17.394;2023-08-12T01:43:25;24.40;49.10
43561;DHT22;32305;46.410;17.394;2023-08-12T01:45:52;24.40;49.10
43561;DHT22;32305;46.410;17.394;2023-08-12T01:48:19;24.40;49.10
43561;DHT22;32305;46.410;17.394;2023-08-12T01:50:50;24.30;49.10
43561;DHT22;32305;46.410;17.394;2023-08-12T01:53:17;24.40;49.10
43561;DHT22;32305;46.410;17.394;2023-08-12T01:55:44;24.30;49.10
43561;DHT22;32305;46.410;17.394;2023-08-12T01:58:11;24.40;49.20
43561;DHT22;32305;46.410;17.394;2023-08-12T02:00:38;24.40;49.20
43561;DHT22;32305;46.410;17.394;2023-08-12T02:03:06;24.30;49.20
43561;DHT22;32305;46.410;17.394;2023-08-12T02:05:33;24.30;49.30
43561;DHT22;32305;46.410;17.394;2023-08-12T02:08:00;24.30;49.20
43561;DHT22;32305;46.410;17.394;2023-08-12T02:10:27;24.30;49.20
43561;DHT22;32305;46.410;17.394;2023-08-12T02:12:54;24.30;49.20
43561;DHT22;32305;46.410;17.394;2023-08-12T02:15:22;24.30;49.20
43561;DHT22;32305;46.410;17.394;2023-08-12T02:17:49;24.30;49.20
43561;DHT22;32305;46.410;17.394;2023-08-12T02:20:16;24.30;49.40
43561;DHT22;32305;46.410;17.394;2023-08-12T02:22:43;24.30;49.20
43561;DHT22;32305;46.410;17.394;2023-08-12T02:25:10;24.30;49.20
43561;DHT22;32305;46.410;17.394;2023-08-12T02:27:37;24.30;49.20
43561;DHT22;32305;46.410;17.394;2023-08-12T02:30:04;24.30;49.20
43561;DHT22;32305;46.410;17.394;2023-08-12T02:32:31;24.30;49.20
43561;DHT22;32305;46.410;17.394;2023-08-12T02:34:59;24.30;49.20
43561;DHT22;32305;46.410;17.394;2023-08-12T02:37:25;24.30;49.20
43561;DHT22;32305;46.410;17.394;2023-08-12T02:39:53;24.30;49.20
43561;DHT22;32305;46.410;17.394;2023-08-12T02:42:19;24.30;49.20
43561;DHT22;32305;46.410;17.394;2023-08-12T02:44:46;24.30;49.50
43561;DHT22;32305;46.410;17.394;2023-08-12T02:47:13;24.30;49.30
43561;DHT22;32305;46.410;17.394;2023-08-12T02:49:40;24.30;49.30
43561;DHT22;32305;46.410;17.394;2023-08-12T02:52:08;24.30;49.30
43561;DHT22;32305;46.410;17.394;2023-08-12T02:54:36;24.30;49.30
43561;DHT22;32305;46.410;17.394;2023-08-12T02:57:03;24.30;49.30
43561;DHT22;32305;46.410;17.394;2023-08-12T02:59:30;24.30;49.30
43561;DHT22;32305;46.410;17.394;2023-08-12T03:01:57;24.30;49.30
43561;DHT22;32305;46.410;17.394;2023-08-12T03:04:25;24.30;49.30
43561;DHT22;32305;46.410;17.394;2023-08-12T03:06:51;24.30;49.30
43561;DHT22;32305;46.410;17.394;2023-08-12T03:09:19;24.30;49.30
43561;DHT22;32305;46.410;17.394;2023-08-12T03:11:46;24.30;49.30
43561;DHT22;32305;46.410;17.394;2023-08-12T03:14:14;24.30;49.30
43561;DHT22;32305;46.410;17.394;2023-08-12T03:16:41;24.30;49.30
43561;DHT22;32305;46.410;17.394;2023-08-12T03:19:08;24.40;49.30
43561;DHT22;32305;46.410;17.394;2023-08-12T03:21:35;24.30;49.30
43561;DHT22;32305;46.410;17.394;2023-08-12T03:24:02;24.30;49.30
43561;DHT22;32305;46.410;17.394;2023-08-12T03:26:29;24.30;49.30
43561;DHT22;32305;46.410;17.394;2023-08-12T03:28:57;24.30;49.30
43561;DHT22;32305;46.410;17.394;2023-08-12T03:31:24;24.30;49.30
43561;DHT22;32305;46.410;17.394;2023-08-12T03:33:51;24.30;49.30
43561;DHT22;32305;46.410;17.394;2023-08-12T03:36:18;24.30;49.30
43561;DHT22;32305;46.410;17.394;2023-08-12T03:38:45;24.30;49.30
43561;DHT22;32305;46.410;17.394;2023-08-12T03:41:12;24.30;49.60
43561;DHT22;32305;46.410;17.394;2023-08-12T03:43:39;24.30;49.40
43561;DHT22;32305;46.410;17.394;2023-08-12T03:46:06;24.30;49.40
43561;DHT22;32305;46.410;17.394;2023-08-12T03:48:33;24.30;50.00
43561;DHT22;32305;46.410;17.394;2023-08-12T03:51:00;24.30;49.40
43561;DHT22;32305;46.410;17.394;2023-08-12T03:53:27;24.30;49.40
43561;DHT22;32305;46.410;17.394;2023-08-12T03:55:54;24.30;49.40
43561;DHT22;32305;46.410;17.394;2023-08-12T03:58:21;24.30;49.40
43561;DHT22;32305;46.410;17.394;2023-08-12T04:00:48;24.30;49.40
43561;DHT22;32305;46.410;17.394;2023-08-12T04:03:15;24.30;49.40
43561;DHT22;32305;46.410;17.394;2023-08-12T04:05:49;24.30;49.40
43561;DHT22;32305;46.410;17.394;2023-08-12T04:08:18;24.30;49.40
43561;DHT22;32305;46.410;17.394;2023-08-12T04:10:46;24.30;49.40
43561;DHT22;32305;46.410;17.394;2023-08-12T04:13:13;24.30;49.30
43561;DHT22;32305;46.410;17.394;2023-08-12T04:15:40;24.30;49.30
43561;DHT22;32305;46.410;17.394;2023-08-12T04:18:07;24.30;49.30
43561;DHT22;32305;46.410;17.394;2023-08-12T04:20:35;24.30;49.30
43561;DHT22;32305;46.410;17.394;2023-08-12T04:23:03;24.30;49.30
43561;DHT22;32305;46.410;17.394;2023-08-12T04:25:30;24.30;49.30
43561;DHT22;32305;46.410;17.394;2023-08-12T04:27:58;24.30;49.30
43561;DHT22;32305;46.410;17.394;2023-08-12T04:30:25;24.30;49.20
43561;DHT22;32305;46.410;17.394;2023-08-12T04:32:53;24.40;49.30
43561;DHT22;32305;46.410;17.394;2023-08-12T04:35:20;24.40;49.20
43561;DHT22;32305;46.410;17.394;2023-08-12T04:37:47;24.30;49.20
43561;DHT22;32305;46.410;17.394;2023-08-12T04:40:14;24.30;49.20
43561;DHT22;32305;46.410;17.394;2023-08-12T04:42:41;24.20;49.20
43561;DHT22;32305;46.410;17.394;2023-08-12T04:45:09;24.10;49.50
43561;DHT22;32305;46.410;17.394;2023-08-12T04:47:36;23.90;49.80
43561;DHT22;32305;46.410;17.394;2023-08-12T04:50:04;23.60;50.20
43561;DHT22;32305;46.410;17.394;2023-08-12T04:52:31;23.30;50.50
43561;DHT22;32305;46.410;17.394;2023-08-12T04:54:58;23.00;49.30
43561;DHT22;32305;46.410;17.394;2023-08-12T04:57:25;22.70;48.40
43561;DHT22;32305;46.410;17.394;2023-08-12T04:59:53;22.40;47.60
43561;DHT22;32305;46.410;17.394;2023-08-12T05:02:20;22.00;47.20
43561;DHT22;32305;46.410;17.394;2023-08-12T05:04:49;21.70;46.60
43561;DHT22;32305;46.410;17.394;2023-08-12T05:07:16;21.40;46.80
43561;DHT22;32305;46.410;17.394;2023-08-12T05:09:43;21.20;47.70
43561;DHT22;32305;46.410;17.394;2023-08-12T05:12:11;20.90;48.60
43561;DHT22;32305;46.410;17.394;2023-08-12T05:14:39;20.60;48.20
43561;DHT22;32305;46.410;17.394;2023-08-12T05:17:07;20.40;48.30
43561;DHT22;32305;46.410;17.394;2023-08-12T05:19:35;20.20;49.30
43561;DHT22;32305;46.410;17.394;2023-08-12T05:22:02;20.10;48.80
43561;DHT22;32305;46.410;17.394;2023-08-12T05:24:29;19.80;49.00
43561;DHT22;32305;46.410;17.394;2023-08-12T05:26:56;19.70;50.10
43561;DHT22;32305;46.410;17.394;2023-08-12T05:29:23;19.60;50.00
43561;DHT22;32305;46.410;17.394;2023-08-12T05:31:50;19.50;49.50
43561;DHT22;32305;46.410;17.394;2023-08-12T05:34:17;19.40;50.70
43561;DHT22;32305;46.410;17.394;2023-08-12T05:36:44;19.30;51.00
43561;DHT22;32305;46.410;17.394;2023-08-12T05:39:11;19.20;50.60
43561;DHT22;32305;46.410;17.394;2023-08-12T05:41:38;19.10;50.50
43561;DHT22;32305;46.410;17.394;2023-08-12T05:44:06;19.00;51.50
43561;DHT22;32305;46.410;17.394;2023-08-12T05:46:33;18.90;51.00
43561;DHT22;32305;46.410;17.394;2023-08-12T05:49:00;18.80;50.90
43561;DHT22;32305;46.410;17.394;2023-08-12T05:51:27;18.70;51.90
43561;DHT22;32305;46.410;17.394;2023-08-12T05:53:57;18.70;52.10
43561;DHT22;32305;46.410;17.394;2023-08-12T05:56:24;18.60;51.40
43561;DHT22;32305;46.410;17.394;2023-08-12T05:58:51;18.60;52.00
43561;DHT22;32305;46.410;17.394;2023-08-12T06:01:18;18.50;52.70
43561;DHT22;32305;46.410;17.394;2023-08-12T06:03:45;18.50;52.20
43561;DHT22;32305;46.410;17.394;2023-08-12T06:06:13;18.50;52.70
43561;DHT22;32305;46.410;17.394;2023-08-12T06:08:40;18.40;53.00
43561;DHT22;32305;46.410;17.394;2023-08-12T06:11:08;18.40;53.00
43561;DHT22;32305;46.410;17.394;2023-08-12T06:13:35;18.40;52.30
43561;DHT22;32305;46.410;17.394;2023-08-12T06:16:02;18.30;53.20
43561;DHT22;32305;46.410;17.394;2023-08-12T06:18:29;18.30;53.60
43561;DHT22;32305;46.410;17.394;2023-08-12T06:20:56;18.30;52.70
43561;DHT22;32305;46.410;17.394;2023-08-12T06:23:23;18.30;52.70
43561;DHT22;32305;46.410;17.394;2023-08-12T06:25:53;18.30;54.20
43561;DHT22;32305;46.410;17.394;2023-08-12T06:28:20;18.30;53.70
43561;DHT22;32305;46.410;17.394;2023-08-12T06:30:48;18.30;53.00
43561;DHT22;32305;46.410;17.394;2023-08-12T06:33:15;18.30;53.60
43561;DHT22;32305;46.410;17.394;2023-08-12T06:35:42;18.30;54.10
43561;DHT22;32305;46.410;17.394;2023-08-12T06:38:09;18.30;53.30
43561;DHT22;32305;46.410;17.394;2023-08-12T06:40:38;18.30;53.50
43561;DHT22;32305;46.410;17.394;2023-08-12T06:43:05;18.30;54.50
43561;DHT22;32305;46.410;17.394;2023-08-12T06:45:34;18.30;53.30
43561;DHT22;32305;46.410;17.394;2023-08-12T06:48:01;18.30;54.30
43561;DHT22;32305;46.410;17.394;2023-08-12T06:50:31;18.30;54.20
43561;DHT22;32305;46.410;17.394;2023-08-12T06:52:59;18.30;54.40
43561;DHT22;32305;46.410;17.394;2023-08-12T06:55:27;18.30;53.90
43561;DHT22;32305;46.410;17.394;2023-08-12T06:57:54;18.30;54.00
43561;DHT22;32305;46.410;17.394;2023-08-12T07:00:20;18.30;54.10
43561;DHT22;32305;46.410;17.394;2023-08-12T07:02:47;18.30;54.40
43561;DHT22;32305;46.410;17.394;2023-08-12T07:05:15;18.30;54.90
43561;DHT22;32305;46.410;17.394;2023-08-12T07:07:42;18.30;54.90
43561;DHT22;32305;46.410;17.394;2023-08-12T07:10:10;18.30;54.80
43561;DHT22;32305;46.410;17.394;2023-08-12T07:12:37;18.30;54.20
43561;DHT22;32305;46.410;17.394;2023-08-12T07:15:04;18.30;54.40
43561;DHT22;32305;46.410;17.394;2023-08-12T07:17:31;18.30;54.10
43561;DHT22;32305;46.410;17.394;2023-08-12T07:19:58;18.30;54.00
43561;DHT22;32305;46.410;17.394;2023-08-12T07:22:25;18.30;54.50
43561;DHT22;32305;46.410;17.394;2023-08-12T07:24:52;18.30;54.70
43561;DHT22;32305;46.410;17.394;2023-08-12T07:27:19;18.30;54.60
43561;DHT22;32305;46.410;17.394;2023-08-12T07:29:47;18.30;53.90
43561;DHT22;32305;46.410;17.394;2023-08-12T07:32:14;18.30;54.60
43561;DHT22;32305;46.410;17.394;2023-08-12T07:34:41;18.30;54.70
43561;DHT22;32305;46.410;17.394;2023-08-12T07:37:08;18.30;54.80
43561;DHT22;32305;46.410;17.394;2023-08-12T07:39:35;18.30;55.80
43561;DHT22;32305;46.410;17.394;2023-08-12T07:42:02;18.30;54.20
43561;DHT22;32305;46.410;17.394;2023-08-12T07:44:30;18.30;54.30
43561;DHT22;32305;46.410;17.394;2023-08-12T07:46:56;18.30;54.10
43561;DHT22;32305;46.410;17.394;2023-08-12T07:49:24;18.30;54.90
43561;DHT22;32305;46.410;17.394;2023-08-12T07:51:51;18.30;54.30
43561;DHT22;32305;46.410;17.394;2023-08-12T07:54:18;18.30;54.00
43561;DHT22;32305;46.410;17.394;2023-08-12T07:56:45;18.30;54.00
43561;DHT22;32305;46.410;17.394;2023-08-12T07:59:12;18.30;55.20
43561;DHT22;32305;46.410;17.394;2023-08-12T08:01:39;18.20;55.90
43561;DHT22;32305;46.410;17.394;2023-08-12T08:04:06;18.20;57.50
43561;DHT22;32305;46.410;17.394;2023-08-12T08:06:33;18.20;58.20
43561;DHT22;32305;46.410;17.394;2023-08-12T08:09:00;18.20;57.90
43561;DHT22;32305;46.410;17.394;2023-08-12T08:11:30;18.20;58.40
43561;DHT22;32305;46.410;17.394;2023-08-12T08:13:58;18.20;58.20
43561;DHT22;32305;46.410;17.394;2023-08-12T08:16:25;18.20;58.10
43561;DHT22;32305;46.410;17.394;2023-08-12T08:18:52;18.20;58.00
43561;DHT22;32305;46.410;17.394;2023-08-12T08:21:19;18.30;57.00
43561;DHT22;32305;46.410;17.394;2023-08-12T08:23:46;18.30;57.50
43561;DHT22;32305;46.410;17.394;2023-08-12T08:26:13;18.30;58.00
43561;DHT22;32305;46.410;17.394;2023-08-12T08:28:42;18.20;57.80
43561;DHT22;32305;46.410;17.394;2023-08-12T08:31:09;18.20;57.70
43561;DHT22;32305;46.410;17.394;2023-08-12T08:33:36;18.30;57.60
43561;DHT22;32305;46.410;17.394;2023-08-12T08:36:03;18.30;57.90
43561;DHT22;32305;46.410;17.394;2023-08-12T08:38:31;18.30;58.00
43561;DHT22;32305;46.410;17.394;2023-08-12T08:40:58;18.30;57.30
43561;DHT22;32305;46.410;17.394;2023-08-12T08:43:26;18.30;57.80
43561;DHT22;32305;46.410;17.394;2023-08-12T08:45:54;18.30;58.30
43561;DHT22;32305;46.410;17.394;2023-08-12T08:48:22;18.40;58.50
43561;DHT22;32305;46.410;17.394;2023-08-12T08:50:49;18.40;58.80
43561;DHT22;32305;46.410;17.394;2023-08-12T08:53:17;18.40;58.40
43561;DHT22;32305;46.410;17.394;2023-08-12T08:55:45;18.40;57.90
43561;DHT22;32305;46.410;17.394;2023-08-12T08:58:12;18.50;58.80
43561;DHT22;32305;46.410;17.394;2023-08-12T09:00:46;18.50;58.50
43561;DHT22;32305;46.410;17.394;2023-08-12T09:03:13;18.50;57.90
43561;DHT22;32305;46.410;17.394;2023-08-12T09:05:41;18.50;58.50
43561;DHT22;32305;46.410;17.394;2023-08-12T09:08:09;18.50;58.30
43561;DHT22;32305;46.410;17.394;2023-08-12T09:10:38;18.50;57.70
43561;DHT22;32305;46.410;17.394;2023-08-12T09:13:06;18.60;58.30
43561;DHT22;32305;46.410;17.394;2023-08-12T09:15:35;18.50;58.20
43561;DHT22;32305;46.410;17.394;2023-08-12T09:18:06;18.60;58.20
43561;DHT22;32305;46.410;17.394;2023-08-12T09:20:33;18.60;58.40
43561;DHT22;32305;46.410;17.394;2023-08-12T09:23:00;18.60;58.00
43561;DHT22;32305;46.410;17.394;2023-08-12T09:25:29;18.60;58.20
43561;DHT22;32305;46.410;17.394;2023-08-12T09:27:59;18.60;58.10
43561;DHT22;32305;46.410;17.394;2023-08-12T09:30:29;18.60;58.60
43561;DHT22;32305;46.410;17.394;2023-08-12T09:32:59;18.60;58.20
43561;DHT22;32305;46.410;17.394;2023-08-12T09:35:31;18.70;56.50
43561;DHT22;32305;46.410;17.394;2023-08-12T09:38:02;18.70;56.60
43561;DHT22;32305;46.410;17.394;2023-08-12T09:40:30;18.70;56.60
43561;DHT22;32305;46.410;17.394;2023-08-12T09:42:58;18.80;56.70
43561;DHT22;32305;46.410;17.394;2023-08-12T09:45:26;18.80;57.20
43561;DHT22;32305;46.410;17.394;2023-08-12T09:47:53;18.80;57.50
43561;DHT22;32305;46.410;17.394;2023-08-12T09:50:21;18.80;57.00
43561;DHT22;32305;46.410;17.394;2023-08-12T09:52:49;18.80;56.70
43561;DHT22;32305;46.410;17.394;2023-08-12T09:55:17;18.90;56.50
43561;DHT22;32305;46.410;17.394;2023-08-12T09:57:44;18.90;56.50
43561;DHT22;32305;46.410;17.394;2023-08-12T10:00:14;18.90;57.00
43561;DHT22;32305;46.410;17.394;2023-08-12T10:02:46;18.90;56.80
43561;DHT22;32305;46.410;17.394;2023-08-12T10:05:23;18.90;56.50
43561;DHT22;32305;46.410;17.394;2023-08-12T10:07:53;18.90;56.50
43561;DHT22;32305;46.410;17.394;2023-08-12T10:10:21;18.90;55.90
43561;DHT22;32305;46.410;17.394;2023-08-12T10:12:51;18.90;56.70
43561;DHT22;32305;46.410;17.394;2023-08-12T10:15:18;18.90;56.00
43561;DHT22;32305;46.410;17.394;2023-08-12T10:17:45;18.90;57.10
43561;DHT22;32305;46.410;17.394;2023-08-12T10:20:13;19.00;57.00
43561;DHT22;32305;46.410;17.394;2023-08-12T10:22:40;19.00;56.90
43561;DHT22;32305;46.410;17.394;2023-08-12T10:25:10;19.00;56.40
43561;DHT22;32305;46.410;17.394;2023-08-12T10:27:40;19.00;56.00
43561;DHT22;32305;46.410;17.394;2023-08-12T10:30:07;19.00;55.50
43561;DHT22;32305;46.410;17.394;2023-08-12T10:32:38;19.00;56.10
43561;DHT22;32305;46.410;17.394;2023-08-12T10:35:05;19.00;56.10
43561;DHT22;32305;46.410;17.394;2023-08-12T10:37:33;19.00;55.20
43561;DHT22;32305;46.410;17.394;2023-08-12T10:40:04;19.00;55.20
43561;DHT22;32305;46.410;17.394;2023-08-12T10:42:41;19.00;54.50
43561;DHT22;32305;46.410;17.394;2023-08-12T10:45:11;18.90;55.80
43561;DHT22;32305;46.410;17.394;2023-08-12T10:47:43;18.90;55.70
43561;DHT22;32305;46.410;17.394;2023-08-12T10:50:21;18.90;55.90
43561;DHT22;32305;46.410;17.394;2023-08-12T10:52:52;18.90;56.30
43561;DHT22;32305;46.410;17.394;2023-08-12T10:55:20;18.90;55.30
43561;DHT22;32305;46.410;17.394;2023-08-12T10:57:48;18.90;55.70
43561;DHT22;32305;46.410;17.394;2023-08-12T11:00:19;18.90;56.10
43561;DHT22;32305;46.410;17.394;2023-08-12T11:02:52;18.90;56.10
43561;DHT22;32305;46.410;17.394;2023-08-12T11:05:19;18.90;56.10
43561;DHT22;32305;46.410;17.394;2023-08-12T11:07:48;18.90;55.80
43561;DHT22;32305;46.410;17.394;2023-08-12T11:10:20;18.90;56.20
43561;DHT22;32305;46.410;17.394;2023-08-12T11:12:55;18.90;56.50
43561;DHT22;32305;46.410;17.394;2023-08-12T11:15:34;18.90;56.20
43561;DHT22;32305;46.410;17.394;2023-08-12T11:18:04;18.90;56.20
43561;DHT22;32305;46.410;17.394;2023-08-12T11:20:32;18.90;55.80
43561;DHT22;32305;46.410;17.394;2023-08-12T11:23:02;18.90;56.50
43561;DHT22;32305;46.410;17.394;2023-08-12T11:25:29;19.00;56.10
43561;DHT22;32305;46.410;17.394;2023-08-12T11:27:56;18.90;55.90
43561;DHT22;32305;46.410;17.394;2023-08-12T11:30:23;18.90;56.30
43561;DHT22;32305;46.410;17.394;2023-08-12T11:32:54;18.90;56.30
43561;DHT22;32305;46.410;17.394;2023-08-12T11:35:22;18.90;56.20
43561;DHT22;32305;46.410;17.394;2023-08-12T11:37:50;18.90;56.20
43561;DHT22;32305;46.410;17.394;2023-08-12T11:40:19;18.90;55.80
43561;DHT22;32305;46.410;17.394;2023-08-12T11:42:47;18.90;56.00
43561;DHT22;32305;46.410;17.394;2023-08-12T11:45:16;18.90;55.50
43561;DHT22;32305;46.410;17.394;2023-08-12T11:47:43;18.90;56.20
43561;DHT22;32305;46.410;17.394;2023-08-12T11:50:11;18.90;55.20
43561;DHT22;32305;46.410;17.394;2023-08-12T11:52:38;18.90;55.30
43561;DHT22;32305;46.410;17.394;2023-08-12T11:55:05;18.90;54.80
43561;DHT22;32305;46.410;17.394;2023-08-12T11:57:34;18.90;55.30
43561;DHT22;32305;46.410;17.394;2023-08-12T12:00:02;18.90;55.40
43561;DHT22;32305;46.410;17.394;2023-08-12T12:02:31;18.90;54.80
43561;DHT22;32305;46.410;17.394;2023-08-12T12:05:04;18.90;54.80
43561;DHT22;32305;46.410;17.394;2023-08-12T12:07:32;18.90;54.90
43561;DHT22;32305;46.410;17.394;2023-08-12T12:09:59;18.90;55.80
43561;DHT22;32305;46.410;17.394;2023-08-12T12:12:26;18.90;55.40
43561;DHT22;32305;46.410;17.394;2023-08-12T12:14:53;18.90;56.10
43561;DHT22;32305;46.410;17.394;2023-08-12T12:17:21;19.00;56.10
43561;DHT22;32305;46.410;17.394;2023-08-12T12:19:57;18.90;56.80
43561;DHT22;32305;46.410;17.394;2023-08-12T12:22:31;19.00;56.70
43561;DHT22;32305;46.410;17.394;2023-08-12T12:25:00;19.00;57.00
43561;DHT22;32305;46.410;17.394;2023-08-12T12:27:27;19.00;56.90
43561;DHT22;32305;46.410;17.394;2023-08-12T12:29:54;19.10;57.20
43561;DHT22;32305;46.410;17.394;2023-08-12T12:32:21;19.10;56.90
43561;DHT22;32305;46.410;17.394;2023-08-12T12:34:48;19.20;56.90
43561;DHT22;32305;46.410;17.394;2023-08-12T12:37:15;19.20;56.70
43561;DHT22;32305;46.410;17.394;2023-08-12T12:39:42;19.30;57.40
43561;DHT22;32305;46.410;17.394;2023-08-12T12:42:10;19.30;56.60
43561;DHT22;32305;46.410;17.394;2023-08-12T12:44:38;19.40;56.90
43561;DHT22;32305;46.410;17.394;2023-08-12T12:47:05;19.40;57.40
43561;DHT22;32305;46.410;17.394;2023-08-12T12:49:33;19.50;57.00
43561;DHT22;32305;46.410;17.394;2023-08-12T12:52:00;19.50;57.00
43561;DHT22;32305;46.410;17.394;2023-08-12T12:54:28;19.50;57.10
43561;DHT22;32305;46.410;17.394;2023-08-12T12:56:57;19.60;56.90
43561;DHT22;32305;46.410;17.394;2023-08-12T12:59:24;19.60;56.70
43561;DHT22;32305;46.410;17.394;2023-08-12T13:01:51;19.60;56.80
43561;DHT22;32305;46.410;17.394;2023-08-12T13:04:18;19.70;56.90
43561;DHT22;32305;46.410;17.394;2023-08-12T13:06:46;19.70;56.90
43561;DHT22;32305;46.410;17.394;2023-08-12T13:09:13;19.70;56.80
43561;DHT22;32305;46.410;17.394;2023-08-12T13:11:40;19.70;56.50
43561;DHT22;32305;46.410;17.394;2023-08-12T13:14:07;19.70;56.50
43561;DHT22;32305;46.410;17.394;2023-08-12T13:16:34;19.70;56.40
43561;DHT22;32305;46.410;17.394;2023-08-12T13:19:01;19.80;56.80
43561;DHT22;32305;46.410;17.394;2023-08-12T13:21:28;19.70;56.80
43561;DHT22;32305;46.410;17.394;2023-08-12T13:23:55;19.80;56.80
43561;DHT22;32305;46.410;17.394;2023-08-12T13:26:22;19.80;56.70
43561;DHT22;32305;46.410;17.394;2023-08-12T13:28:49;19.80;56.90
43561;DHT22;32305;46.410;17.394;2023-08-12T13:31:17;19.80;56.80
43561;DHT22;32305;46.410;17.394;2023-08-12T13:33:44;19.80;56.70
43561;DHT22;32305;46.410;17.394;2023-08-12T13:36:11;19.90;56.90
43561;DHT22;32305;46.410;17.394;2023-08-12T13:38:38;19.90;56.70
43561;DHT22;32305;46.410;17.394;2023-08-12T13:41:05;19.90;56.50
43561;DHT22;32305;46.410;17.394;2023-08-12T13:43:33;19.90;56.50
43561;DHT22;32305;46.410;17.394;2023-08-12T13:46:00;19.90;56.50
43561;DHT22;32305;46.410;17.394;2023-08-12T13:48:27;19.90;56.30
43561;DHT22;32305;46.410;17.394;2023-08-12T13:50:54;19.90;56.40
43561;DHT22;32305;46.410;17.394;2023-08-12T13:53:23;19.90;56.50
43561;DHT22;32305;46.410;17.394;2023-08-12T13:55:51;19.90;56.40
43561;DHT22;32305;46.410;17.394;2023-08-12T13:58:18;19.90;56.50
43561;DHT22;32305;46.410;17.394;2023-08-12T14:00:45;20.00;56.80
43561;DHT22;32305;46.410;17.394;2023-08-12T14:03:13;20.00;56.80
43561;DHT22;32305;46.410;17.394;2023-08-12T14:05:40;19.90;62.40
43561;DHT22;32305;46.410;17.394;2023-08-12T14:08:07;20.20;68.30
43561;DHT22;32305;46.410;17.394;2023-08-12T14:10:34;20.40;70.20
43561;DHT22;32305;46.410;17.394;2023-08-12T14:13:01;20.70;71.60
43561;DHT22;32305;46.410;17.394;2023-08-12T14:15:28;20.90;71.40
43561;DHT22;32305;46.410;17.394;2023-08-12T14:17:56;21.20;71.30
43561;DHT22;32305;46.410;17.394;2023-08-12T14:20:23;21.50;71.20
43561;DHT22;32305;46.410;17.394;2023-08-12T14:22:50;21.70;70.70
43561;DHT22;32305;46.410;17.394;2023-08-12T14:25:17;21.90;70.80
43561;DHT22;32305;46.410;17.394;2023-08-12T14:27:44;22.10;70.50
43561;DHT22;32305;46.410;17.394;2023-08-12T14:30:11;22.20;69.80
43561;DHT22;32305;46.410;17.394;2023-08-12T14:32:38;22.40;69.80
43561;DHT22;32305;46.410;17.394;2023-08-12T14:35:07;22.50;69.50
43561;DHT22;32305;46.410;17.394;2023-08-12T14:37:34;22.60;69.00
43561;DHT22;32305;46.410;17.394;2023-08-12T14:40:01;22.70;69.10
43561;DHT22;32305;46.410;17.394;2023-08-12T14:42:28;22.80;69.00
43561;DHT22;32305;46.410;17.394;2023-08-12T14:44:55;23.00;69.00
43561;DHT22;32305;46.410;17.394;2023-08-12T14:47:22;23.00;68.10
43561;DHT22;32305;46.410;17.394;2023-08-12T14:49:49;23.10;68.80
43561;DHT22;32305;46.410;17.394;2023-08-12T14:52:19;23.20;68.60
43561;DHT22;32305;46.410;17.394;2023-08-12T14:54:47;23.30;66.40
43561;DHT22;32305;46.410;17.394;2023-08-12T14:57:14;23.40;67.20
43561;DHT22;32305;46.410;17.394;2023-08-12T14:59:41;23.50;67.60
43561;DHT22;32305;46.410;17.394;2023-08-12T15:02:08;23.60;67.60
43561;DHT22;32305;46.410;17.394;2023-08-12T15:04:35;23.60;67.00
43561;DHT22;32305;46.410;17.394;2023-08-12T15:07:02;23.70;67.10
43561;DHT22;32305;46.410;17.394;2023-08-12T15:09:29;23.80;66.50
43561;DHT22;32305;46.410;17.394;2023-08-12T15:11:56;23.90;66.90
43561;DHT22;32305;46.410;17.394;2023-08-12T15:14:23;23.90;66.30
43561;DHT22;32305;46.410;17.394;2023-08-12T15:16:50;24.00;65.80
43561;DHT22;32305;46.410;17.394;2023-08-12T15:19:17;24.10;66.30